createdAt,value
2019-05-29T00:00:21.547Z,24.17
2019-05-29T00:05:29.425Z,25.97
2019-05-29T00:10:37.568Z,25.17
2019-05-29T00:15:44.814Z,21.10
2019-05-29T00:21:12.992Z,25.83
2019-05-29T00:26:39.651Z,18.90
2019-05-29T00:31:47.082Z,17.23
2019-05-29T00:36:54.352Z,16.10
2019-05-29T00:42:01.672Z,17.00
2019-05-29T00:47:09.910Z,18.77
2019-05-29T00:52:18.357Z,19.70
2019-05-29T00:57:26.642Z,17.57
2019-05-29T01:02:34.075Z,16.80
2019-05-29T01:07:41.311Z,18.27
2019-05-29T01:12:48.547Z,19.03
2019-05-29T01:17:56.037Z,18.10
2019-05-29T01:23:03.312Z,21.50
2019-05-29T01:28:11.146Z,18.67
2019-05-29T01:33:20.485Z,24.57
2019-05-29T01:38:29.518Z,19.53
2019-05-29T01:43:37.645Z,19.53
2019-05-29T01:48:45.074Z,17.63
2019-05-29T01:53:52.662Z,19.37
2019-05-29T01:58:59.989Z,18.67
2019-05-29T02:04:07.742Z,22.27
2019-05-29T02:09:15.925Z,18.80
2019-05-29T02:14:24.864Z,13.37
2019-05-29T02:19:34.850Z,12.70
2019-05-29T02:24:42.969Z,12.23
2019-05-29T02:29:50.366Z,10.73
2019-05-29T02:34:58.516Z,10.57
2019-05-29T02:40:08.332Z,12.30
2019-05-29T02:45:17.190Z,11.00
2019-05-29T02:50:26.197Z,16.23
2019-05-29T02:55:34.380Z,14.10
2019-05-29T03:00:54.858Z,11.40
2019-05-29T03:06:02.413Z,8.57
2019-05-29T03:11:09.760Z,11.77
2019-05-29T03:16:28.173Z,7.07
2019-05-29T03:21:36.359Z,10.73
2019-05-29T03:26:52.926Z,9.43
2019-05-29T03:32:00.198Z,9.67
2019-05-29T03:37:08.483Z,6.03
2019-05-29T03:42:16.943Z,8.53
2019-05-29T03:47:26.768Z,8.90
2019-05-29T03:52:34.962Z,9.60
2019-05-29T03:57:44.342Z,9.37
2019-05-29T04:02:51.800Z,9.20
2019-05-29T04:07:59.099Z,8.90
2019-05-29T04:13:07.573Z,13.90
2019-05-29T04:18:19.507Z,9.97
2019-05-29T04:23:29.920Z,9.13
2019-05-29T04:28:39.219Z,10.47
2019-05-29T04:33:46.779Z,10.00
2019-05-29T04:38:59.613Z,8.27
2019-05-29T04:44:10.853Z,8.60
2019-05-29T04:49:20.322Z,10.90
2019-05-29T04:54:29.321Z,7.63
2019-05-29T04:59:37.136Z,6.33
2019-05-29T05:04:45.465Z,9.33
2019-05-29T05:09:52.854Z,9.73
2019-05-29T05:15:01.453Z,8.67
2019-05-29T05:20:09.748Z,7.47
2019-05-29T05:25:18.059Z,8.20
2019-05-29T05:30:27.884Z,9.37
2019-05-29T05:35:36.799Z,6.83
2019-05-29T05:40:47.837Z,9.07
2019-05-29T05:45:55.077Z,7.03
2019-05-29T05:51:02.881Z,8.17
2019-05-29T05:56:12.259Z,8.67
2019-05-29T06:01:21.398Z,8.77
2019-05-29T06:06:29.440Z,5.17
2019-05-29T06:11:36.642Z,7.37
2019-05-29T06:16:44.723Z,8.00
2019-05-29T06:21:51.964Z,7.50
2019-05-29T06:27:00.254Z,10.47
2019-05-29T06:32:09.304Z,13.07
2019-05-29T06:37:16.782Z,7.13
2019-05-29T06:42:24.875Z,8.10
2019-05-29T06:47:32.110Z,7.43
2019-05-29T06:52:41.370Z,7.73
2019-05-29T06:57:49.125Z,8.53
2019-05-29T07:03:20.216Z,8.20
2019-05-29T07:08:40.977Z,9.00
2019-05-29T07:13:50.034Z,9.73
2019-05-29T07:19:24.190Z,8.50
2019-05-29T07:24:03.834Z,10.03
2019-05-29T07:29:11.296Z,12.03
2019-05-29T07:34:20.156Z,11.20
2019-05-29T07:39:27.318Z,7.13
2019-05-29T07:44:35.400Z,4.87
2019-05-29T07:49:46.229Z,6.23
2019-05-29T07:54:52.612Z,12.60
2019-05-29T07:59:59.867Z,7.17
2019-05-29T08:05:09.356Z,9.20
2019-05-29T08:10:27.331Z,6.07
2019-05-29T08:15:49.197Z,6.07
2019-05-29T08:20:48.589Z,8.37
2019-05-29T08:25:55.906Z,7.00
2019-05-29T08:31:03.612Z,8.20
2019-05-29T08:36:12.324Z,5.83
2019-05-29T08:41:20.696Z,9.77
2019-05-29T08:46:28.003Z,13.40
2019-05-29T08:51:36.144Z,8.40
2019-05-29T08:56:44.320Z,11.27
2019-05-29T09:01:55.350Z,8.40
2019-05-29T09:07:15.140Z,8.53
2019-05-29T09:12:22.363Z,6.50
2019-05-29T09:17:30.454Z,8.37
2019-05-29T09:22:39.025Z,5.23
2019-05-29T09:27:46.402Z,10.90
2019-05-29T09:32:53.562Z,6.83
2019-05-29T09:38:02.398Z,7.70
2019-05-29T09:43:09.616Z,7.53
2019-05-29T09:48:20.100Z,10.27
2019-05-29T09:53:27.708Z,9.07
2019-05-29T09:58:36.810Z,10.40
2019-05-29T10:03:44.472Z,10.53
2019-05-29T10:08:54.104Z,6.87
2019-05-29T10:14:02.773Z,11.77
2019-05-29T10:19:11.283Z,10.77
2019-05-29T10:24:19.317Z,11.87
2019-05-29T10:29:27.598Z,7.37
2019-05-29T10:34:35.275Z,10.93
2019-05-29T10:39:44.641Z,6.53
2019-05-29T10:44:53.343Z,6.43
2019-05-29T10:50:00.562Z,8.17
2019-05-29T10:55:08.879Z,5.10
2019-05-29T11:00:26.676Z,6.07
2019-05-29T11:05:35.021Z,8.33
2019-05-29T11:10:42.179Z,6.20
2019-05-29T11:15:50.718Z,8.63
2019-05-29T11:20:58.076Z,8.80
2019-05-29T11:26:06.590Z,6.47
2019-05-29T11:31:13.899Z,4.73
2019-05-29T11:36:23.650Z,5.07
2019-05-29T11:41:30.776Z,6.27
2019-05-29T11:46:42.362Z,6.47
2019-05-29T11:51:51.336Z,5.60
2019-05-29T11:57:05.339Z,9.20
2019-05-29T12:02:13.501Z,6.03
2019-05-29T12:07:21.084Z,4.47
2019-05-29T12:12:28.846Z,3.70
2019-05-29T12:17:38.371Z,11.60
2019-05-29T12:23:11.215Z,8.73
2019-05-29T12:27:57.358Z,8.47
2019-05-29T12:33:06.689Z,7.27
2019-05-29T12:38:13.820Z,8.30
2019-05-29T12:43:27.616Z,8.17
2019-05-29T12:48:39.319Z,6.63
2019-05-29T12:53:48.356Z,5.90
2019-05-29T12:58:56.082Z,8.03
2019-05-29T13:04:05.438Z,3.63
2019-05-29T13:09:12.829Z,3.97
2019-05-29T13:14:19.946Z,13.30
2019-05-29T13:19:28.129Z,6.50
2019-05-29T13:24:35.405Z,8.60
2019-05-29T13:29:44.579Z,3.83
2019-05-29T13:34:52.006Z,3.20
2019-05-29T13:40:00.323Z,6.97
2019-05-29T13:45:17.684Z,2.80
2019-05-29T13:50:21.019Z,3.67
2019-05-29T13:55:30.200Z,2.83
2019-05-29T14:00:38.513Z,2.93
2019-05-29T14:05:55.018Z,3.00
2019-05-29T14:11:03.492Z,4.07
2019-05-29T14:16:16.401Z,3.87
2019-05-29T14:21:24.196Z,4.33
2019-05-29T14:26:31.427Z,7.40
2019-05-29T14:31:41.288Z,3.63
2019-05-29T14:37:07.985Z,5.53
2019-05-29T14:42:16.213Z,6.00
2019-05-29T14:47:25.117Z,5.23
2019-05-29T14:52:32.854Z,4.30
2019-05-29T14:57:59.087Z,3.07
2019-05-29T15:03:07.674Z,2.27
2019-05-29T15:08:34.817Z,7.17
2019-05-29T15:13:42.912Z,9.93
2019-05-29T15:18:50.115Z,3.03
2019-05-29T15:24:15.955Z,4.10
2019-05-29T15:29:23.445Z,3.67
2019-05-29T15:34:33.365Z,4.83
2019-05-29T15:39:41.377Z,3.67
2019-05-29T15:44:49.750Z,3.00
2019-05-29T15:49:57.344Z,3.70
2019-05-29T15:55:21.241Z,2.77
2019-05-29T16:00:18.870Z,4.13
2019-05-29T16:05:27.565Z,3.13
2019-05-29T16:10:52.886Z,5.07
2019-05-29T16:16:02.217Z,3.03
2019-05-29T16:21:12.546Z,3.60
2019-05-29T16:26:20.114Z,4.60
2019-05-29T16:31:30.290Z,4.60
2019-05-29T16:36:39.092Z,1.57
2019-05-29T16:41:47.371Z,2.90
2019-05-29T16:46:54.510Z,4.13
2019-05-29T16:52:04.780Z,4.80
2019-05-29T16:57:13.026Z,1.93
2019-05-29T17:02:21.733Z,2.93
2019-05-29T17:07:28.960Z,4.23
2019-05-29T17:12:36.846Z,1.37
2019-05-29T17:17:43.996Z,2.50
2019-05-29T17:22:51.479Z,2.20
2019-05-29T17:27:58.601Z,7.67
2019-05-29T17:33:07.326Z,2.87
2019-05-29T17:38:19.018Z,6.50
2019-05-29T17:43:28.736Z,3.60
2019-05-29T17:48:38.920Z,3.20
2019-05-29T17:53:46.899Z,2.50
2019-05-29T17:59:12.387Z,3.53
2019-05-29T18:04:41.942Z,5.43
2019-05-29T18:09:50.098Z,5.43
2019-05-29T18:14:57.449Z,3.03
2019-05-29T18:20:07.461Z,5.07
2019-05-29T18:25:17.901Z,3.67
2019-05-29T18:30:26.631Z,6.57
2019-05-29T18:35:35.885Z,4.83
2019-05-29T18:40:44.537Z,3.87
2019-05-29T18:45:52.167Z,3.80
2019-05-29T18:51:17.498Z,4.87
2019-05-29T18:56:26.450Z,5.80
2019-05-29T19:01:38.080Z,7.77
2019-05-29T19:06:47.692Z,8.50
2019-05-29T19:11:54.993Z,6.03
2019-05-29T19:17:02.519Z,7.57
2019-05-29T19:22:11.351Z,5.00
2019-05-29T19:27:31.070Z,4.53
2019-05-29T19:32:48.987Z,4.23
2019-05-29T19:38:14.531Z,10.20
2019-05-29T19:43:30.335Z,7.47
2019-05-29T19:48:37.579Z,8.80
2019-05-29T19:53:51.088Z,4.50
2019-05-29T19:59:16.738Z,8.80
2019-05-29T20:04:23.905Z,4.80
2019-05-29T20:09:31.308Z,6.20
2019-05-29T20:14:56.864Z,6.20
2019-05-29T20:20:22.244Z,10.47
2019-05-29T20:25:47.342Z,11.77
2019-05-29T20:31:12.718Z,13.63
2019-05-29T20:36:40.047Z,11.93
2019-05-29T20:41:48.468Z,10.33
2019-05-29T20:47:08.880Z,8.17
2019-05-29T20:52:27.495Z,3.33
2019-05-29T20:57:38.372Z,4.63
2019-05-29T21:02:46.386Z,4.73
2019-05-29T21:07:55.278Z,3.00
2019-05-29T21:13:05.943Z,3.83
2019-05-29T21:18:14.123Z,2.37
2019-05-29T21:23:26.431Z,6.37
2019-05-29T21:28:41.788Z,3.10
2019-05-29T21:33:49.273Z,7.00
2019-05-29T21:38:55.865Z,3.43
2019-05-29T21:44:06.152Z,3.23
2019-05-29T21:49:21.101Z,3.10
2019-05-29T21:54:29.170Z,3.10
2019-05-29T21:59:37.659Z,5.50
2019-05-29T22:04:56.467Z,4.90
2019-05-29T22:10:08.439Z,3.80
2019-05-29T22:15:17.974Z,3.93
2019-05-29T22:20:28.372Z,4.27
2019-05-29T22:25:36.808Z,8.00
2019-05-29T22:30:46.454Z,5.60
2019-05-29T22:35:55.698Z,5.83
2019-05-29T22:41:03.761Z,6.30
2019-05-29T23:09:08.571Z,26.57
2019-05-29T23:14:17.546Z,21.73
2019-05-29T23:19:26.238Z,21.40
2019-05-29T23:24:40.314Z,19.80
2019-05-29T23:29:49.675Z,15.97
2019-05-29T23:34:59.081Z,17.57
2019-05-29T23:40:10.534Z,11.50
2019-05-29T23:45:29.411Z,13.47
2019-05-29T23:50:37.153Z,12.87
2019-05-29T23:55:45.402Z,22.27
